Time;durP1;ratioP1;P1;durP2;ratioP2;P2;SDS_P1;SDS_P2;PMS_P1;PMS_P2;Temp;Humidity;BMP_temperature;BMP_pressure;BME280_temperature;BME280_humidity;BME280_pressure;Samples;Min_cycle;Max_cycle;Signal;HPM_P1;HPM_P2
2024/01/13 00:02:16;;;;;;;35.83;12.33;;;2.00;99.90;;;;;;5012744;28;20368;-49
2024/01/13 00:04:42;;;;;;;33.77;12.13;;;2.00;99.90;;;;;;5012584;28;20033;-48
2024/01/13 00:07:07;;;;;;;33.83;12.30;;;1.90;99.90;;;;;;5013256;28;20029;-49
2024/01/13 00:09:33;;;;;;;30.47;12.10;;;2.00;99.90;;;;;;5012292;28;20034;-49
2024/01/13 00:11:59;;;;;;;41.63;12.80;;;2.00;99.90;;;;;;5012643;28;20426;-50
2024/01/13 00:14:24;;;;;;;33.63;12.77;;;2.00;99.90;;;;;;5012742;28;20025;-50
2024/01/13 00:16:50;;;;;;;33.23;12.40;;;2.00;99.90;;;;;;5012674;28;20057;-49
2024/01/13 00:19:15;;;;;;;34.53;13.07;;;1.90;99.90;;;;;;5012460;28;20168;-50
2024/01/13 00:21:41;;;;;;;31.70;11.47;;;2.00;99.90;;;;;;5012544;28;20026;-48
2024/01/13 00:24:07;;;;;;;31.67;12.60;;;2.00;99.90;;;;;;5012454;28;20030;-49
2024/01/13 00:26:32;;;;;;;35.23;12.30;;;2.00;99.90;;;;;;5013188;28;20038;-48
2024/01/13 00:28:58;;;;;;;34.13;12.10;;;2.00;99.90;;;;;;5012930;28;20022;-49
2024/01/13 00:31:23;;;;;;;33.83;11.73;;;2.00;99.90;;;;;;5012433;28;20037;-49
2024/01/13 00:33:49;;;;;;;37.90;13.10;;;2.00;99.90;;;;;;5012579;28;20033;-49
2024/01/13 00:36:14;;;;;;;33.97;13.03;;;2.00;99.90;;;;;;5012494;28;20030;-53
2024/01/13 00:38:40;;;;;;;36.37;12.07;;;2.00;99.90;;;;;;5013013;28;20026;-54
2024/01/13 00:41:06;;;;;;;31.37;12.37;;;2.00;99.90;;;;;;5014327;28;20037;-53
2024/01/13 00:43:32;;;;;;;31.13;11.83;;;2.00;99.90;;;;;;5014199;28;20030;-53
2024/01/13 00:45:57;;;;;;;33.63;12.80;;;2.00;99.90;;;;;;5014455;28;20029;-53
2024/01/13 00:48:23;;;;;;;32.70;11.47;;;2.00;99.90;;;;;;5013824;28;20042;-54
2024/01/13 00:50:49;;;;;;;34.23;12.80;;;2.00;99.90;;;;;;5014290;28;20041;-52
2024/01/13 00:53:14;;;;;;;35.73;12.00;;;2.00;99.90;;;;;;5014383;28;20036;-53
2024/01/13 00:55:40;;;;;;;29.53;11.57;;;2.00;99.90;;;;;;5012660;28;20505;-52
2024/01/13 00:58:05;;;;;;;38.50;12.40;;;1.90;99.90;;;;;;5012185;28;20026;-49
2024/01/13 01:00:31;;;;;;;37.60;12.37;;;1.90;99.90;;;;;;5011997;28;20069;-54
2024/01/13 01:02:56;;;;;;;31.87;12.80;;;1.90;99.90;;;;;;5012025;28;20022;-51
2024/01/13 01:05:22;;;;;;;31.30;11.43;;;1.90;99.90;;;;;;5012257;28;20069;-52
2024/01/13 01:07:47;;;;;;;33.90;12.80;;;2.00;99.90;;;;;;5012086;28;20026;-53
2024/01/13 01:10:13;;;;;;;31.67;12.63;;;2.00;99.90;;;;;;5010581;28;20498;-53
2024/01/13 01:12:39;;;;;;;39.13;12.23;;;2.00;99.90;;;;;;5011969;28;20038;-53
2024/01/13 01:15:05;;;;;;;31.97;11.40;;;2.00;99.90;;;;;;5012229;28;20034;-54
2024/01/13 01:17:30;;;;;;;35.57;12.33;;;2.00;99.90;;;;;;5016061;28;20026;-51
2024/01/13 01:19:56;;;;;;;29.87;11.00;;;2.00;99.90;;;;;;5015594;28;20493;-54
2024/01/13 01:22:22;;;;;;;29.20;11.47;;;2.00;99.90;;;;;;5015886;28;20026;-54
2024/01/13 01:24:48;;;;;;;32.40;11.53;;;2.00;99.90;;;;;;5015794;28;20454;-53
2024/01/13 01:27:13;;;;;;;27.37;11.33;;;2.10;99.90;;;;;;5015852;28;20044;-52
2024/01/13 01:29:39;;;;;;;28.83;11.40;;;2.00;99.90;;;;;;5015507;28;20026;-48
2024/01/13 01:32:05;;;;;;;36.67;11.10;;;2.00;99.90;;;;;;5015541;28;20494;-49
2024/01/13 01:34:30;;;;;;;31.20;10.63;;;2.00;99.90;;;;;;5015661;28;20075;-51
2024/01/13 01:36:56;;;;;;;31.33;10.47;;;2.00;99.90;;;;;;5015499;28;20064;-50
2024/01/13 01:39:21;;;;;;;33.30;11.00;;;2.00;99.90;;;;;;5015414;28;20479;-49
2024/01/13 01:41:47;;;;;;;28.93;10.53;;;2.10;99.90;;;;;;5015290;28;20073;-50
2024/01/13 01:44:13;;;;;;;26.40;10.00;;;2.10;99.90;;;;;;5015527;28;20573;-51
2024/01/13 01:46:39;;;;;;;29.37;11.50;;;2.00;99.90;;;;;;5015400;28;20037;-51
2024/01/13 01:49:05;;;;;;;31.67;10.53;;;2.00;99.90;;;;;;5015199;28;20137;-50
2024/01/13 01:51:33;;;;;;;34.23;10.97;;;2.00;99.90;;;;;;5015203;28;20064;-53
2024/01/13 01:53:59;;;;;;;29.40;11.80;;;2.00;99.90;;;;;;5015170;28;20026;-53
2024/01/13 01:56:28;;;;;;;29.77;10.67;;;2.00;99.90;;;;;;5015353;28;20034;-51
2024/01/13 01:58:54;;;;;;;27.40;10.97;;;2.00;99.90;;;;;;5013860;28;20037;-48
2024/01/13 02:01:22;;;;;;;33.07;12.30;;;2.00;99.90;;;;;;5014877;28;20034;-52
2024/01/13 02:03:48;;;;;;;34.80;11.03;;;2.00;99.90;;;;;;5015011;28;20037;-49
2024/01/13 02:06:14;;;;;;;33.87;11.77;;;2.10;99.90;;;;;;5014979;28;20108;-53
2024/01/13 02:08:40;;;;;;;29.77;12.23;;;2.10;99.90;;;;;;5014921;28;20030;-54
2024/01/13 02:11:07;;;;;;;36.80;11.27;;;2.10;99.90;;;;;;5014653;28;20042;-50
2024/01/13 02:13:33;;;;;;;28.53;11.70;;;2.10;99.90;;;;;;5014889;28;20029;-52
2024/01/13 02:15:59;;;;;;;28.17;10.63;;;2.10;99.90;;;;;;5014704;28;20080;-52
2024/01/13 02:18:24;;;;;;;32.87;12.00;;;2.10;99.90;;;;;;5014916;28;20030;-54
2024/01/13 02:20:50;;;;;;;33.27;12.23;;;2.10;99.90;;;;;;5014553;28;20073;-49
2024/01/13 02:23:16;;;;;;;36.10;12.73;;;2.10;99.90;;;;;;5014627;28;20487;-50
2024/01/13 02:25:41;;;;;;;36.07;12.77;;;2.10;99.90;;;;;;5014714;28;20105;-52
2024/01/13 02:28:07;;;;;;;29.53;11.23;;;2.10;99.90;;;;;;5013477;28;20062;-50
2024/01/13 02:30:32;;;;;;;32.73;12.53;;;2.10;99.90;;;;;;5014419;28;20041;-52
2024/01/13 02:32:58;;;;;;;31.40;11.03;;;2.20;99.90;;;;;;5013350;28;20105;-52
2024/01/13 02:35:23;;;;;;;29.10;12.03;;;2.20;99.90;;;;;;5014467;28;20471;-53
2024/01/13 02:37:49;;;;;;;37.60;11.43;;;2.20;99.90;;;;;;5014323;28;20109;-52
2024/01/13 02:40:14;;;;;;;27.40;10.97;;;2.20;99.90;;;;;;5014253;28;20025;-51
2024/01/13 02:42:40;;;;;;;31.73;11.70;;;2.20;99.90;;;;;;5014215;28;20036;-50
2024/01/13 02:45:06;;;;;;;31.43;11.77;;;2.10;99.90;;;;;;5014285;28;20036;-54
2024/01/13 02:47:47;;;;;;;37.40;13.10;;;2.10;99.90;;;;;;5014293;28;20036;-52
2024/01/13 02:50:16;;;;;;;30.93;11.07;;;2.10;99.90;;;;;;5014130;28;20475;-52
2024/01/13 02:52:44;;;;;;;33.97;12.13;;;2.10;99.90;;;;;;5014350;28;20041;-50
2024/01/13 02:55:10;;;;;;;28.83;11.03;;;2.10;99.90;;;;;;5013987;28;20496;-50
2024/01/13 02:57:35;;;;;;;28.03;10.67;;;2.10;99.90;;;;;;5014068;28;20123;-49
2024/01/13 03:00:01;;;;;;;28.83;11.53;;;2.10;99.90;;;;;;5013871;28;20049;-50
2024/01/13 03:02:26;;;;;;;33.73;12.27;;;2.10;99.90;;;;;;5013867;28;20537;-50
2024/01/13 03:04:52;;;;;;;32.50;11.03;;;2.10;99.90;;;;;;5013802;28;20471;-52
2024/01/13 03:07:17;;;;;;;29.27;11.47;;;2.10;99.90;;;;;;5013926;28;20052;-51
2024/01/13 03:09:44;;;;;;;26.83;11.33;;;2.10;99.90;;;;;;5013511;28;20458;-51
2024/01/13 03:12:10;;;;;;;32.87;12.20;;;2.20;99.90;;;;;;5013816;28;20159;-52
2024/01/13 03:14:35;;;;;;;28.47;10.90;;;2.20;99.90;;;;;;5013754;28;20049;-52
2024/01/13 03:17:01;;;;;;;32.13;11.97;;;2.20;99.90;;;;;;5013576;28;20434;-48
2024/01/13 03:19:28;;;;;;;31.77;11.70;;;2.20;99.90;;;;;;5013606;28;20022;-51
2024/01/13 03:21:54;;;;;;;30.43;12.03;;;2.20;99.90;;;;;;5013608;28;20096;-53
2024/01/13 03:24:19;;;;;;;30.97;11.77;;;2.20;99.90;;;;;;5013622;28;20483;-53
2024/01/13 03:26:45;;;;;;;27.87;11.20;;;2.20;99.90;;;;;;5013656;28;20037;-51
2024/01/13 03:29:10;;;;;;;31.93;11.90;;;2.30;99.90;;;;;;5013396;28;20034;-52
2024/01/13 03:31:36;;;;;;;33.23;11.37;;;2.30;99.90;;;;;;5013297;28;20471;-51
2024/01/13 03:34:02;;;;;;;27.87;9.87;;;2.30;99.90;;;;;;5013425;28;20034;-50
2024/01/13 03:36:27;;;;;;;26.83;11.53;;;2.30;99.90;;;;;;5013301;28;20030;-50
2024/01/13 03:38:53;;;;;;;29.80;11.10;;;2.30;99.90;;;;;;5012856;28;20026;-54
2024/01/13 03:41:22;;;;;;;30.27;11.30;;;2.30;99.90;;;;;;5013256;28;20419;-54
2024/01/13 03:43:49;;;;;;;28.50;11.45;;;2.30;99.90;;;;;;5013172;28;20026;-54
2024/01/13 03:46:15;;;;;;;27.10;11.17;;;2.30;99.90;;;;;;5011861;28;20034;-51
2024/01/13 03:48:41;;;;;;;30.50;11.07;;;2.30;99.90;;;;;;5013071;28;20029;-52
2024/01/13 03:51:08;;;;;;;28.87;10.83;;;2.30;99.90;;;;;;5012900;28;20030;-51
2024/01/13 03:53:33;;;;;;;29.27;11.07;;;2.30;99.90;;;;;;5012946;28;20076;-51
2024/01/13 03:55:59;;;;;;;34.90;11.90;;;2.30;99.90;;;;;;5012884;28;20387;-51
2024/01/13 03:58:25;;;;;;;31.90;11.60;;;2.30;99.90;;;;;;5011729;28;20494;-49
2024/01/13 04:00:50;;;;;;;33.97;11.57;;;2.30;99.90;;;;;;5011474;28;20026;-48
2024/01/13 04:03:16;;;;;;;28.20;11.50;;;2.20;99.90;;;;;;5012857;28;20467;-50
2024/01/13 04:05:41;;;;;;;25.97;11.07;;;2.30;99.90;;;;;;5012860;28;20129;-51
2024/01/13 04:08:07;;;;;;;30.77;11.23;;;2.30;99.90;;;;;;5012855;28;20391;-56
2024/01/13 04:10:33;;;;;;;27.73;10.83;;;2.30;99.90;;;;;;5012513;28;20040;-49
2024/01/13 04:13:00;;;;;;;32.27;10.83;;;2.30;99.90;;;;;;5012807;28;20061;-50
2024/01/13 04:15:25;;;;;;;28.57;11.50;;;2.30;99.90;;;;;;5011267;28;20037;-55
2024/01/13 04:17:53;;;;;;;29.37;10.47;;;2.30;99.90;;;;;;5011700;28;20160;-48
2024/01/13 04:20:18;;;;;;;26.80;10.37;;;2.30;99.90;;;;;;5012599;28;20121;-53
2024/01/13 04:22:44;;;;;;;35.90;10.80;;;2.30;99.90;;;;;;5012452;28;20080;-52
2024/01/13 04:25:10;;;;;;;28.83;10.67;;;2.30;99.90;;;;;;5012981;28;20034;-52
2024/01/13 04:27:35;;;;;;;30.13;10.37;;;2.30;99.90;;;;;;5012587;28;20038;-51
2024/01/13 04:30:01;;;;;;;28.47;10.73;;;2.30;99.90;;;;;;5012254;28;20038;-52
2024/01/13 04:32:26;;;;;;;26.83;9.93;;;2.30;99.90;;;;;;5012549;28;20057;-50
2024/01/13 04:34:52;;;;;;;27.83;10.00;;;2.30;99.90;;;;;;5012405;28;20037;-49
2024/01/13 04:37:18;;;;;;;27.90;10.23;;;2.40;99.90;;;;;;5012456;28;20034;-52
2024/01/13 04:39:43;;;;;;;25.53;10.17;;;2.30;99.90;;;;;;5010974;28;20033;-53
2024/01/13 04:42:09;;;;;;;27.87;9.90;;;2.40;99.90;;;;;;5012254;28;20033;-54
2024/01/13 04:44:34;;;;;;;28.23;10.17;;;2.40;99.90;;;;;;5012213;28;20112;-52
2024/01/13 04:47:00;;;;;;;24.70;10.40;;;2.40;99.90;;;;;;5012400;28;20033;-53
2024/01/13 04:49:26;;;;;;;29.70;9.70;;;2.40;99.90;;;;;;5010818;28;20034;-53
2024/01/13 04:51:52;;;;;;;31.00;11.17;;;2.40;99.90;;;;;;5011592;28;20037;-54
2024/01/13 04:54:18;;;;;;;21.40;9.80;;;2.40;99.90;;;;;;5012178;28;20033;-53
2024/01/13 04:56:45;;;;;;;27.73;10.50;;;2.40;99.90;;;;;;5012162;28;20120;-51
2024/01/13 04:59:10;;;;;;;23.30;10.10;;;2.40;99.90;;;;;;5012038;28;20506;-52
2024/01/13 05:01:36;;;;;;;26.97;10.57;;;2.40;99.90;;;;;;5012154;28;20313;-53
2024/01/13 05:04:01;;;;;;;22.10;8.57;;;2.40;99.90;;;;;;5012017;28;20495;-55
2024/01/13 05:06:27;;;;;;;22.03;9.10;;;2.40;99.90;;;;;;5012302;28;20057;-54
2024/01/13 05:08:53;;;;;;;29.27;10.40;;;2.40;99.90;;;;;;5011969;28;20586;-52
2024/01/13 05:11:19;;;;;;;22.93;9.77;;;2.40;99.90;;;;;;5011942;28;20042;-49
2024/01/13 05:13:45;;;;;;;25.70;9.87;;;2.40;99.90;;;;;;5012094;28;20038;-54
2024/01/13 05:16:10;;;;;;;25.87;9.60;;;2.50;99.90;;;;;;5011996;28;20565;-53
2024/01/13 05:18:36;;;;;;;26.77;9.97;;;2.40;99.90;;;;;;5012081;28;20037;-53
2024/01/13 05:21:02;;;;;;;22.43;9.53;;;2.40;99.90;;;;;;5011846;28;20041;-54
2024/01/13 05:23:27;;;;;;;24.70;9.60;;;2.40;99.90;;;;;;5011937;28;20121;-53
2024/01/13 05:25:53;;;;;;;25.63;10.00;;;2.40;99.90;;;;;;5011961;28;20080;-53
2024/01/13 05:28:19;;;;;;;24.90;9.63;;;2.40;99.90;;;;;;5011887;28;20368;-54
2024/01/13 05:30:45;;;;;;;25.20;9.60;;;2.40;99.90;;;;;;5011693;28;20138;-50
2024/01/13 05:33:10;;;;;;;26.60;9.70;;;2.40;99.90;;;;;;5010708;28;20030;-51
2024/01/13 05:35:36;;;;;;;23.60;9.63;;;2.50;99.90;;;;;;5011889;28;20037;-55
2024/01/13 05:38:01;;;;;;;25.23;9.70;;;2.60;99.90;;;;;;5011887;28;20040;-50
2024/01/13 05:40:27;;;;;;;23.53;10.07;;;2.60;99.90;;;;;;5011482;28;20117;-53
2024/01/13 05:42:52;;;;;;;28.20;10.30;;;2.60;99.90;;;;;;5011684;28;20049;-53
2024/01/13 05:45:18;;;;;;;25.80;9.90;;;2.60;99.90;;;;;;5011783;28;20042;-54
2024/01/13 05:47:44;;;;;;;25.43;9.73;;;2.60;99.90;;;;;;5011830;28;20037;-54
2024/01/13 05:50:09;;;;;;;20.50;9.10;;;2.60;99.90;;;;;;5011600;28;20034;-53
2024/01/13 05:52:36;;;;;;;22.40;8.37;;;2.60;99.90;;;;;;5011600;28;20053;-52
2024/01/13 05:55:03;;;;;;;23.73;9.93;;;2.50;99.90;;;;;;5011669;28;20041;-50
2024/01/13 05:57:29;;;;;;;25.53;9.30;;;2.50;99.90;;;;;;5011569;28;20030;-52
2024/01/13 05:59:54;;;;;;;22.43;9.17;;;2.60;99.90;;;;;;5011495;28;20386;-55
2024/01/13 06:02:20;;;;;;;22.23;9.43;;;2.60;99.90;;;;;;5013715;28;20032;-54
2024/01/13 06:04:47;;;;;;;23.50;8.53;;;2.60;99.90;;;;;;5015099;28;20037;-54
2024/01/13 06:07:14;;;;;;;17.33;8.03;;;2.50;99.90;;;;;;5015132;28;20139;-49
2024/01/13 06:09:40;;;;;;;21.17;9.30;;;2.60;99.90;;;;;;5014846;28;20038;-55
2024/01/13 06:12:07;;;;;;;23.00;9.20;;;2.60;99.90;;;;;;5014903;28;20398;-53
2024/01/13 06:14:32;;;;;;;21.23;8.43;;;2.60;99.90;;;;;;5015022;28;20084;-53
2024/01/13 06:16:58;;;;;;;22.83;9.10;;;2.60;99.90;;;;;;5014865;28;20391;-54
2024/01/13 06:19:24;;;;;;;16.53;8.03;;;2.60;99.90;;;;;;5014675;28;20033;-50
2024/01/13 06:21:49;;;;;;;20.27;9.03;;;2.70;99.90;;;;;;5014694;28;20120;-50
2024/01/13 06:24:15;;;;;;;21.50;8.70;;;2.70;99.90;;;;;;5014767;28;20044;-50
2024/01/13 06:26:44;;;;;;;20.10;8.60;;;2.70;99.90;;;;;;5014669;28;20030;-49
2024/01/13 06:29:10;;;;;;;21.50;8.47;;;2.70;99.90;;;;;;5014664;28;20030;-52
2024/01/13 06:31:36;;;;;;;24.13;8.57;;;2.80;99.90;;;;;;5014555;28;20472;-50
2024/01/13 06:34:02;;;;;;;19.33;8.47;;;2.80;99.90;;;;;;5014596;28;20072;-51
2024/01/13 06:36:27;;;;;;;16.93;7.07;;;2.80;99.90;;;;;;5013176;28;20026;-53
2024/01/13 06:38:54;;;;;;;16.87;8.30;;;2.80;99.90;;;;;;5014422;28;20464;-49
2024/01/13 06:41:19;;;;;;;19.70;7.93;;;2.70;99.90;;;;;;5013121;28;20029;-49
2024/01/13 06:43:45;;;;;;;17.47;7.53;;;2.80;99.90;;;;;;5014425;28;20030;-49
2024/01/13 06:46:11;;;;;;;16.73;7.53;;;2.80;99.90;;;;;;4997003;28;20041;-54
2024/01/13 06:48:37;;;;;;;17.40;7.43;;;2.70;99.90;;;;;;5014331;28;20040;-50
2024/01/13 06:51:03;;;;;;;17.57;7.60;;;2.70;99.90;;;;;;5014098;28;20124;-52
2024/01/13 06:53:28;;;;;;;15.93;6.80;;;2.70;99.90;;;;;;5014207;28;20030;-48
2024/01/13 06:55:54;;;;;;;19.00;7.63;;;2.70;99.90;;;;;;5014156;28;20029;-53
2024/01/13 06:58:19;;;;;;;17.67;7.27;;;2.70;99.90;;;;;;5014159;28;20047;-48
2024/01/13 07:00:45;;;;;;;17.10;7.13;;;2.80;99.90;;;;;;5012815;28;20230;-53
2024/01/13 07:03:11;;;;;;;17.90;7.53;;;2.90;99.90;;;;;;5014043;28;20033;-49
2024/01/13 07:05:36;;;;;;;15.23;7.30;;;2.80;99.90;;;;;;5014052;28;20034;-49
2024/01/13 07:08:04;;;;;;;15.30;6.67;;;2.80;99.90;;;;;;5012748;28;20038;-51
2024/01/13 07:10:30;;;;;;;16.17;6.30;;;2.70;99.90;;;;;;5013636;28;20053;-54
2024/01/13 07:12:57;;;;;;;15.23;5.73;;;2.70;99.90;;;;;;5013075;28;20497;-53
2024/01/13 07:15:23;;;;;;;17.87;6.17;;;2.80;99.90;;;;;;5012533;28;20124;-53
2024/01/13 07:17:48;;;;;;;16.37;6.10;;;2.80;99.90;;;;;;5013718;28;20113;-49
2024/01/13 07:20:14;;;;;;;16.10;6.67;;;2.80;99.90;;;;;;5013603;28;20029;-49
2024/01/13 07:22:40;;;;;;;16.03;7.30;;;2.80;99.90;;;;;;5013651;28;20033;-53
2024/01/13 07:25:06;;;;;;;19.03;6.97;;;2.80;99.90;;;;;;5012388;28;20026;-49
2024/01/13 07:27:32;;;;;;;15.70;6.57;;;2.80;99.90;;;;;;5013702;28;20038;-50
2024/01/13 07:29:59;;;;;;;19.70;6.77;;;2.80;99.90;;;;;;5013239;28;20025;-50
2024/01/13 07:32:25;;;;;;;15.27;6.17;;;2.80;99.90;;;;;;5013650;28;20018;-49
2024/01/13 07:34:51;;;;;;;14.53;6.67;;;2.80;99.90;;;;;;5013651;28;20402;-50
2024/01/13 07:37:16;;;;;;;17.47;6.60;;;2.70;99.90;;;;;;5013634;28;20029;-50
2024/01/13 07:39:44;;;;;;;16.33;7.00;;;2.70;99.90;;;;;;5013136;28;20022;-49
2024/01/13 07:42:09;;;;;;;17.47;6.33;;;2.70;99.90;;;;;;5012211;28;20076;-52
2024/01/13 07:44:35;;;;;;;17.23;7.23;;;2.70;99.90;;;;;;5013361;28;20448;-50
2024/01/13 07:47:03;;;;;;;14.90;6.97;;;2.70;99.90;;;;;;5013465;28;20033;-48
2024/01/13 07:49:29;;;;;;;15.80;6.83;;;2.70;99.90;;;;;;5013119;28;20076;-48
2024/01/13 07:51:56;;;;;;;17.07;6.67;;;2.70;99.90;;;;;;5013848;28;20034;-50
2024/01/13 07:54:22;;;;;;;15.63;7.00;;;2.80;99.90;;;;;;5013508;28;20033;-51
2024/01/13 07:56:49;;;;;;;19.50;7.17;;;2.80;99.90;;;;;;5013872;28;20065;-50
2024/01/13 07:59:16;;;;;;;13.33;6.00;;;2.90;99.90;;;;;;5013502;28;20442;-49
2024/01/13 08:01:42;;;;;;;15.17;6.70;;;3.00;99.90;;;;;;5013760;28;20525;-51
2024/01/13 08:04:08;;;;;;;27.23;10.30;;;3.00;99.90;;;;;;5014936;28;20026;-53
2024/01/13 08:06:33;;;;;;;23.23;9.43;;;2.90;99.90;;;;;;5014570;28;20129;-54
2024/01/13 08:08:59;;;;;;;21.40;8.23;;;3.00;99.90;;;;;;5013500;28;20478;-53
2024/01/13 08:11:25;;;;;;;19.00;8.60;;;3.00;99.90;;;;;;5014369;28;20120;-52
2024/01/13 08:13:50;;;;;;;21.60;9.63;;;3.00;99.90;;;;;;5014594;28;20034;-49
2024/01/13 08:16:16;;;;;;;23.67;8.70;;;2.90;99.90;;;;;;5014224;28;20038;-48
2024/01/13 08:18:42;;;;;;;24.43;9.13;;;2.90;99.90;;;;;;5013576;28;20321;-53
2024/01/13 08:21:08;;;;;;;22.97;10.17;;;2.90;99.90;;;;;;5013467;28;20136;-50
2024/01/13 08:23:34;;;;;;;24.63;10.20;;;2.80;99.90;;;;;;5011300;28;20062;-53
2024/01/13 08:26:00;;;;;;;29.67;10.80;;;2.80;99.90;;;;;;5012859;28;20382;-48
2024/01/13 08:28:26;;;;;;;23.33;9.40;;;2.70;99.90;;;;;;5012654;28;20466;-53
2024/01/13 08:30:51;;;;;;;26.67;10.30;;;2.70;99.90;;;;;;5012350;28;20161;-53
2024/01/13 08:33:17;;;;;;;24.40;9.53;;;2.70;99.90;;;;;;5012458;28;20034;-53
2024/01/13 08:35:43;;;;;;;26.17;10.50;;;2.70;99.90;;;;;;5012414;28;20087;-51
2024/01/13 08:38:09;;;;;;;27.00;10.60;;;2.60;99.90;;;;;;5012358;28;20056;-52
2024/01/13 08:40:35;;;;;;;28.07;10.83;;;2.60;99.90;;;;;;5012188;28;20038;-51
2024/01/13 08:43:02;;;;;;;24.53;10.13;;;2.70;99.90;;;;;;5012292;28;20026;-49
2024/01/13 08:45:33;;;;;;;27.03;10.30;;;2.70;99.90;;;;;;5012313;28;20042;-52
2024/01/13 08:47:59;;;;;;;23.37;10.13;;;2.70;99.90;;;;;;5012458;28;20479;-52
2024/01/13 08:50:25;;;;;;;27.23;10.70;;;2.80;99.90;;;;;;5012088;28;20165;-53
2024/01/13 08:52:54;;;;;;;21.80;8.60;;;2.80;99.90;;;;;;5012147;28;20141;-50
2024/01/13 08:55:26;;;;;;;24.98;10.48;;;2.80;99.90;;;;;;5012364;28;20061;-54
2024/01/13 08:57:52;;;;;;;22.20;9.37;;;2.90;99.90;;;;;;5012457;28;20026;-50
2024/01/13 09:00:18;;;;;;;24.90;9.77;;;2.90;99.90;;;;;;5012127;28;20034;-54
2024/01/13 09:02:44;;;;;;;24.33;9.13;;;2.90;99.90;;;;;;5012189;28;20073;-50
2024/01/13 09:05:11;;;;;;;24.47;9.33;;;2.90;99.90;;;;;;5012099;28;20034;-54
2024/01/13 09:07:37;;;;;;;21.90;9.63;;;3.00;99.90;;;;;;5012104;28;20022;-49
2024/01/13 09:10:04;;;;;;;24.50;10.03;;;3.00;99.90;;;;;;5011818;28;20494;-52
2024/01/13 09:12:30;;;;;;;22.93;10.03;;;3.00;99.90;;;;;;5010967;28;20040;-52
2024/01/13 09:14:56;;;;;;;23.63;9.90;;;2.90;99.90;;;;;;5012002;28;20522;-52
2024/01/13 09:17:22;;;;;;;20.27;9.43;;;2.90;99.90;;;;;;5012126;28;20030;-53
2024/01/13 09:19:47;;;;;;;22.60;10.07;;;2.90;99.90;;;;;;5011857;28;20038;-51
2024/01/13 09:22:13;;;;;;;24.07;9.63;;;2.90;99.90;;;;;;5012395;28;20030;-53
2024/01/13 09:24:41;;;;;;;21.23;8.70;;;2.90;99.90;;;;;;5012183;28;20483;-52
2024/01/13 09:27:06;;;;;;;26.30;9.80;;;2.90;99.90;;;;;;5012069;28;20029;-52
2024/01/13 09:29:32;;;;;;;24.90;9.47;;;2.90;99.90;;;;;;5011828;28;20037;-52
2024/01/13 09:31:57;;;;;;;20.17;8.63;;;2.90;99.90;;;;;;5011844;28;20030;-52
2024/01/13 09:34:24;;;;;;;23.23;9.47;;;3.00;99.90;;;;;;5011904;28;20403;-52
2024/01/13 09:36:50;;;;;;;25.17;10.17;;;3.00;99.90;;;;;;5013202;28;20040;-52
2024/01/13 09:39:17;;;;;;;21.57;8.47;;;2.90;99.90;;;;;;5015593;28;20026;-53
2024/01/13 09:41:44;;;;;;;22.93;9.23;;;2.90;99.90;;;;;;5015351;28;20025;-48
2024/01/13 09:44:27;;;;;;;21.47;8.77;;;2.90;99.90;;;;;;5015610;28;20026;-52
2024/01/13 09:46:56;;;;;;;21.17;8.97;;;2.90;99.90;;;;;;5015586;28;20069;-50
2024/01/13 09:49:24;;;;;;;20.60;9.97;;;2.90;99.90;;;;;;5015350;28;20038;-50
2024/01/13 09:51:51;;;;;;;24.33;9.67;;;2.90;99.90;;;;;;5015237;28;20543;-51
2024/01/13 09:54:27;;;;;;;25.70;9.17;;;2.90;99.90;;;;;;5015412;28;20030;-53
2024/01/13 09:56:55;;;;;;;23.93;9.30;;;3.00;99.90;;;;;;5015557;28;20107;-54
2024/01/13 09:59:22;;;;;;;23.53;9.17;;;3.00;99.90;;;;;;5015385;28;20029;-51
2024/01/13 10:01:48;;;;;;;21.60;9.10;;;3.10;99.90;;;;;;5015460;28;20040;-52
2024/01/13 10:04:14;;;;;;;21.30;8.47;;;3.00;99.90;;;;;;5015302;28;20029;-54
2024/01/13 10:06:40;;;;;;;23.47;9.30;;;3.00;99.90;;;;;;5015300;28;20121;-54
2024/01/13 10:09:07;;;;;;;21.23;8.90;;;3.00;99.90;;;;;;5015086;28;20033;-54
2024/01/13 10:11:33;;;;;;;18.70;7.93;;;3.00;99.90;;;;;;5015047;28;20034;-51
2024/01/13 10:14:07;;;;;;;19.07;8.07;;;3.00;99.90;;;;;;5014983;28;20514;-52
2024/01/13 10:16:34;;;;;;;20.53;8.10;;;3.10;99.90;;;;;;5015093;28;20030;-53
2024/01/13 10:19:01;;;;;;;18.43;7.63;;;3.00;99.90;;;;;;5014866;28;20030;-52
2024/01/13 10:21:27;;;;;;;16.10;7.50;;;3.10;99.90;;;;;;5013556;28;20022;-49
2024/01/13 10:23:57;;;;;;;21.60;8.53;;;3.10;99.90;;;;;;5013582;28;20234;-52
2024/01/13 10:26:24;;;;;;;18.73;7.57;;;3.10;99.90;;;;;;5014807;28;20041;-52
2024/01/13 10:28:53;;;;;;;16.93;8.50;;;3.10;99.90;;;;;;5014614;28;20042;-54
2024/01/13 10:31:20;;;;;;;18.98;7.63;;;3.10;99.90;;;;;;5014676;28;20069;-53
2024/01/13 10:33:49;;;;;;;15.17;7.40;;;3.10;99.90;;;;;;5014693;28;20367;-53
2024/01/13 10:36:16;;;;;;;18.47;7.73;;;3.10;99.90;;;;;;5013560;28;20095;-54
2024/01/13 10:38:43;;;;;;;18.40;7.53;;;3.10;99.90;;;;;;5014995;28;20494;-53
2024/01/13 10:41:12;;;;;;;19.00;7.17;;;3.20;99.90;;;;;;5014525;28;20502;-52
2024/01/13 10:43:42;;;;;;;;;;;3.10;99.90;;;;;;5015297;28;20029;-54
2024/01/13 10:46:12;;;;;;;15.15;6.05;;;3.20;99.90;;;;;;5015005;28;20315;-51
2024/01/13 10:48:46;;;;;;;16.40;6.87;;;3.30;99.90;;;;;;5013267;28;20113;-51
2024/01/13 10:51:22;;;;;;;17.17;7.73;;;3.30;99.90;;;;;;5014448;28;20040;-55
2024/01/13 10:53:49;;;;;;;16.77;6.83;;;3.30;99.90;;;;;;5014447;28;20038;-50
2024/01/13 10:56:15;;;;;;;15.57;6.80;;;3.30;99.90;;;;;;5014276;28;20072;-54
2024/01/13 10:58:48;;;;;;;15.20;6.70;;;3.20;99.90;;;;;;5014176;28;20026;-53
2024/01/13 11:01:14;;;;;;;17.30;6.27;;;3.20;99.90;;;;;;5014208;28;20022;-53
2024/01/13 11:03:45;;;;;;;19.67;6.53;;;3.30;99.90;;;;;;5014086;28;20109;-55
2024/01/13 11:06:11;;;;;;;15.23;6.70;;;3.30;99.90;;;;;;5014132;28;20120;-53
2024/01/13 11:08:36;;;;;;;15.80;6.30;;;3.20;99.90;;;;;;5013928;28;20070;-55
2024/01/13 11:11:04;;;;;;;13.87;6.47;;;3.20;99.90;;;;;;5013793;28;20076;-55
2024/01/13 11:13:52;;;;;;;15.07;6.20;;;3.20;99.90;;;;;;5013862;28;20076;-55
2024/01/13 11:16:25;;;;;;;13.43;5.77;;;3.20;99.90;;;;;;5013850;28;20033;-53
2024/01/13 11:18:52;;;;;;;15.27;6.47;;;3.20;99.90;;;;;;5013801;28;20105;-54
2024/01/13 11:21:19;;;;;;;14.50;6.10;;;3.20;99.90;;;;;;5013838;28;20353;-55
2024/01/13 11:23:51;;;;;;;20.07;7.03;;;3.10;99.90;;;;;;5013619;28;20022;-54
2024/01/13 11:26:19;;;;;;;13.63;6.17;;;3.10;99.90;;;;;;5012801;28;20037;-53
2024/01/13 11:28:50;;;;;;;17.63;7.73;;;3.10;99.90;;;;;;5013451;28;20095;-52
2024/01/13 11:31:38;;;;;;;14.23;6.57;;;3.10;99.90;;;;;;5013456;28;20134;-53
2024/01/13 11:34:06;;;;;;;15.20;6.40;;;3.10;99.90;;;;;;5013568;28;20100;-55
2024/01/13 11:36:39;;;;;;;16.67;6.27;;;3.10;99.90;;;;;;5013404;28;20034;-53
2024/01/13 11:39:05;;;;;;;13.53;5.60;;;3.10;99.90;;;;;;5013283;28;20032;-52
2024/01/13 11:41:40;;;;;;;15.40;6.03;;;3.10;99.90;;;;;;5013652;28;20444;-53
2024/01/13 11:44:07;;;;;;;14.93;5.93;;;3.20;99.90;;;;;;5013433;28;20073;-52
2024/01/13 11:46:38;;;;;;;14.80;6.07;;;3.10;99.90;;;;;;5013303;28;20033;-52
2024/01/13 11:49:04;;;;;;;13.80;6.17;;;3.20;99.90;;;;;;5013130;28;20087;-53
2024/01/13 11:51:59;;;;;;;18.23;7.40;;;3.20;99.90;;;;;;5013227;28;20033;-52
2024/01/13 11:54:25;;;;;;;16.73;6.57;;;3.20;99.90;;;;;;5013162;28;20041;-54
2024/01/13 11:56:52;;;;;;;15.97;6.73;;;3.20;99.90;;;;;;5013297;28;20041;-52
2024/01/13 11:59:17;;;;;;;17.53;7.23;;;3.20;99.90;;;;;;5012783;28;20461;-53
2024/01/13 12:01:45;;;;;;;18.83;6.93;;;3.20;99.90;;;;;;5012756;28;20053;-53
2024/01/13 12:04:11;;;;;;;17.10;6.70;;;3.20;99.90;;;;;;5012960;28;20088;-52
2024/01/13 12:06:37;;;;;;;19.53;7.13;;;3.20;99.90;;;;;;5013020;28;20029;-51
2024/01/13 12:09:03;;;;;;;15.17;6.73;;;3.20;99.90;;;;;;5012885;28;20636;-55
2024/01/13 12:11:28;;;;;;;15.87;6.63;;;3.20;99.90;;;;;;5012892;28;20050;-55
2024/01/13 12:13:54;;;;;;;14.77;6.37;;;3.30;99.90;;;;;;5012975;28;20448;-54
2024/01/13 12:16:20;;;;;;;16.57;6.80;;;3.30;99.90;;;;;;5012945;28;20034;-54
2024/01/13 12:18:46;;;;;;;16.67;6.93;;;3.30;99.90;;;;;;5012749;28;20049;-54
2024/01/13 12:21:14;;;;;;;16.93;7.37;;;3.30;99.90;;;;;;5012648;28;20145;-50
2024/01/13 12:23:42;;;;;;;15.83;6.87;;;3.30;99.90;;;;;;5012614;28;20048;-50
2024/01/13 12:26:08;;;;;;;20.50;6.47;;;3.30;99.90;;;;;;5012450;28;20124;-53
2024/01/13 12:28:34;;;;;;;19.77;7.47;;;3.30;99.90;;;;;;5012638;28;20176;-50
2024/01/13 12:31:03;;;;;;;17.27;8.37;;;3.30;99.90;;;;;;5012566;28;20372;-53
2024/01/13 12:33:29;;;;;;;;;;;3.30;99.90;;;;;;5013057;28;20026;-51
2024/01/13 12:35:59;;;;;;;19.63;6.83;;;3.30;99.90;;;;;;5012438;28;19913;-51
2024/01/13 12:38:28;;;;;;;17.40;6.97;;;3.30;99.90;;;;;;5012501;28;20550;-54
2024/01/13 12:40:58;;;;;;;17.30;6.95;;;3.30;99.90;;;;;;5012385;28;20026;-54